Time;durP1;ratioP1;P1;durP2;ratioP2;P2;SDS_P1;SDS_P2;PMS_P1;PMS_P2;Temp;Humidity;BMP_temperature;BMP_pressure;BME280_temperature;BME280_humidity;BME280_pressure;Samples;Min_cycle;Max_cycle;Signal;HPM_P1;HPM_P2
2022/12/31 00:00:37;;;;;;;;;0.00;0.00;;;;;15.20;91.56;100483.81;5018424;28;45180;-66
2022/12/31 00:03:06;;;;;;;;;0.50;0.25;;;;;15.14;92.13;100469.75;5018437;28;45482;-65
2022/12/31 00:05:32;;;;;;;;;1.00;0.00;;;;;15.15;92.25;100479.59;5018613;28;45275;-64
2022/12/31 00:07:57;;;;;;;;;1.00;1.00;;;;;15.09;92.24;100482.72;5018121;28;45350;-66
2022/12/31 00:10:23;;;;;;;;;1.00;1.00;;;;;15.13;91.90;100494.19;5018495;28;45388;-66
2022/12/31 00:12:49;;;;;;;;;1.75;0.50;;;;;14.96;92.01;100457.56;5018123;28;45259;-65
2022/12/31 00:15:14;;;;;;;;;0.50;0.50;;;;;15.15;92.21;100478.72;5018500;28;45326;-66
2022/12/31 00:17:39;;;;;;;;;2.00;1.00;;;;;15.11;91.78;100488.88;5018189;28;45347;-66
2022/12/31 00:20:05;;;;;;;;;3.00;1.00;;;;;15.08;91.39;100481.00;5018327;28;46007;-66
2022/12/31 00:22:31;;;;;;;;;1.00;1.00;;;;;15.14;91.00;100509.44;5018230;28;45467;-65
2022/12/31 00:24:56;;;;;;;;;0.75;0.75;;;;;15.15;90.63;100509.28;5018429;28;45372;-65
2022/12/31 00:27:21;;;;;;;;;1.00;1.00;;;;;15.14;90.81;100510.25;5020538;28;45499;-65
2022/12/31 00:29:47;;;;;;;;;2.50;1.00;;;;;15.13;90.14;100510.41;5021560;28;46103;-67
2022/12/31 05:30:52;;;;;;;;;2.00;1.00;;;;;15.73;76.79;100667.47;1425654;26;46207;-73
2022/12/31 05:33:18;;;;;;;;;1.00;1.00;;;;;15.76;76.76;100669.06;5076817;28;45237;-73
2022/12/31 05:35:43;;;;;;;;;3.00;1.00;;;;;15.74;76.41;100679.97;5076092;27;45415;-75
2022/12/31 05:38:09;;;;;;;;;0.25;0.25;;;;;15.73;76.38;100662.06;5076760;27;45233;-74
2022/12/31 05:40:34;;;;;;;;;2.25;1.75;;;;;15.77;75.89;100674.38;5076097;27;46020;-73
2022/12/31 05:43:00;;;;;;;;;1.00;1.00;;;;;15.83;76.10;100683.88;5075362;27;45609;-75
2022/12/31 05:45:25;;;;;;;;;3.75;2.75;;;;;15.84;75.85;100686.50;5076323;27;45647;-73
2022/12/31 05:47:51;;;;;;;;;0.50;0.50;;;;;15.85;75.73;100679.25;5076452;27;45497;-74
2022/12/31 05:50:16;;;;;;;;;1.75;1.50;;;;;15.90;75.79;100687.94;5076081;28;45517;-74
2022/12/31 05:52:43;;;;;;;;;1.00;1.00;;;;;15.83;75.69;100673.94;5076150;28;45256;-72
2022/12/31 05:55:09;;;;;;;;;1.50;1.50;;;;;15.82;75.52;100688.44;5076390;27;45384;-74
2022/12/31 05:57:34;;;;;;;;;2.00;1.00;;;;;15.77;75.69;100678.91;5075617;27;45515;-74
2022/12/31 06:00:00;;;;;;;;;3.00;3.00;;;;;15.69;75.83;100667.75;5075819;28;46261;-74
2022/12/31 06:02:25;;;;;;;;;5.75;3.00;;;;;15.76;75.73;100671.75;5076195;27;45348;-73
2022/12/31 06:04:51;;;;;;;;;3.00;1.00;;;;;15.68;75.47;100663.31;5076009;27;45396;-74
2022/12/31 06:07:16;;;;;;;;;2.00;2.00;;;;;15.71;75.89;100665.81;5091687;27;46414;-73
2022/12/31 06:09:41;;;;;;;;;3.00;1.50;;;;;15.78;75.79;100686.91;5075945;27;46122;-76
2022/12/31 06:12:07;;;;;;;;;2.00;2.00;;;;;15.75;75.66;100694.34;5075681;27;45381;-74
2022/12/31 06:14:33;;;;;;;;;2.75;1.75;;;;;15.72;75.48;100675.66;5075912;27;45199;-74
2022/12/31 06:16:58;;;;;;;;;2.75;2.00;;;;;15.71;75.64;100685.63;5090685;27;46432;-75
2022/12/31 06:19:23;;;;;;;;;2.00;1.00;;;;;15.73;75.59;100689.09;5075532;27;46001;-74
2022/12/31 06:21:49;;;;;;;;;1.00;1.00;;;;;15.78;75.61;100702.28;5075776;27;45294;-73
2022/12/31 06:24:14;;;;;;;;;1.00;1.00;;;;;15.76;75.14;100699.66;5073701;27;45481;-74
2022/12/31 06:26:40;;;;;;;;;3.25;1.00;;;;;15.78;75.24;100719.34;5074667;28;45482;-75
2022/12/31 06:29:05;;;;;;;;;2.00;2.00;;;;;15.72;75.31;100711.69;5074192;28;45354;-74
2022/12/31 06:31:30;;;;;;;;;2.25;1.00;;;;;15.70;75.81;100696.53;5075257;27;45283;-74
2022/12/31 06:37:18;;;;;;;;;0.00;0.00;;;;;15.78;75.09;100707.69;5073337;28;45979;-75
2022/12/31 06:39:43;;;;;;;;;3.50;1.75;;;;;15.70;75.23;100715.44;5073197;28;45918;-75
2022/12/31 06:42:08;;;;;;;;;0.50;0.50;;;;;15.67;75.08;100683.19;5075549;27;45524;-74
2022/12/31 06:44:34;;;;;;;;;3.00;1.25;;;;;15.76;74.92;100717.72;5074961;27;45452;-74
2022/12/31 06:46:59;;;;;;;;;1.00;1.00;;;;;15.73;74.73;100743.16;5075342;27;45510;-73
2022/12/31 06:49:24;;;;;;;;;4.00;2.00;;;;;15.78;75.22;100732.88;5075282;27;45332;-74
2022/12/31 06:51:49;;;;;;;;;2.00;2.00;;;;;15.79;75.21;100722.94;5074779;28;45396;-75
2022/12/31 06:54:15;;;;;;;;;5.00;1.75;;;;;15.80;74.92;100736.34;5074409;27;45601;-74
2022/12/31 06:56:41;;;;;;;;;5.50;2.00;;;;;15.79;74.69;100744.56;5074957;27;46039;-74
2022/12/31 06:59:22;;;;;;;;;4.00;2.75;;;;;15.75;75.03;100753.81;5074180;27;45462;-75
2022/12/31 07:02:04;;;;;;;;;2.00;2.00;;;;;15.76;74.55;100742.03;5074534;27;45392;-73
2022/12/31 07:04:48;;;;;;;;;3.00;1.00;;;;;15.82;74.48;100755.19;5075126;27;45306;-75
2022/12/31 07:07:32;;;;;;;;;4.25;1.00;;;;;15.80;74.89;100752.56;5073901;28;45590;-74
2022/12/31 07:10:15;;;;;;;;;2.75;1.00;;;;;15.76;74.89;100750.16;5074051;27;45604;-75
2022/12/31 07:13:02;;;;;;;;;3.00;2.00;;;;;15.66;75.00;100719.31;5060947;28;45459;-75
2022/12/31 07:16:01;;;;;;;;;4.00;3.00;;;;;15.74;74.88;100738.56;5075113;27;45372;-74
2022/12/31 07:18:42;;;;;;;;;1.75;1.75;;;;;15.67;74.86;100735.41;5074526;28;45382;-75
2022/12/31 07:21:12;;;;;;;;;3.50;2.00;;;;;15.60;74.88;100720.59;5074138;28;45619;-75
2022/12/31 07:23:38;;;;;;;;;2.50;2.00;;;;;15.73;74.68;100744.97;5074582;27;45374;-74
2022/12/31 07:26:42;;;;;;;;;1.50;1.50;;;;;15.69;74.57;100725.38;5074940;27;45536;-74
2022/12/31 07:29:13;;;;;;;;;2.00;2.00;;;;;15.64;74.51;100741.06;5068159;28;45524;-74
2022/12/31 07:31:41;;;;;;;;;6.00;3.75;;;;;15.75;74.40;100756.53;5074339;27;45612;-73
2022/12/31 07:34:33;;;;;;;;;1.25;1.00;;;;;15.70;74.28;100755.97;5074498;28;45431;-75
2022/12/31 07:37:06;;;;;;;;;2.00;2.00;;;;;15.73;74.30;100769.31;5074182;28;45480;-74
2022/12/31 07:39:37;;;;;;;;;1.00;1.00;;;;;15.77;74.33;100770.81;5074561;27;45341;-73
2022/12/31 07:42:34;;;;;;;;;1.50;1.50;;;;;15.70;74.17;100762.25;5074317;28;46091;-75
2022/12/31 07:45:09;;;;;;;;;4.00;2.00;;;;;15.72;73.77;100770.28;5046744;28;45562;-73
2022/12/31 07:47:34;;;;;;;;;2.75;2.00;;;;;15.79;73.41;100772.47;5089849;27;45347;-74
2022/12/31 07:50:00;;;;;;;;;1.75;1.75;;;;;15.82;73.78;100779.50;5074288;28;45542;-74
2022/12/31 07:52:26;;;;;;;;;5.00;2.00;;;;;15.69;73.31;100787.53;5074642;28;45356;-76
2022/12/31 07:54:51;;;;;;;;;4.25;2.00;;;;;15.70;73.34;100801.94;5074475;27;45547;-74
2022/12/31 07:57:19;;;;;;;;;2.75;1.00;;;;;15.74;73.27;100816.97;5075027;27;45344;-78
2022/12/31 07:59:44;;;;;;;;;2.00;2.00;;;;;15.71;73.48;100812.66;5074134;27;45499;-75
2022/12/31 08:02:57;;;;;;;;;7.75;4.00;;;;;15.65;73.35;100828.41;5074484;27;45355;-78
2022/12/31 08:05:32;;;;;;;;;2.00;2.00;;;;;15.67;73.18;100805.69;5031337;28;45509;-77
2022/12/31 08:08:17;;;;;;;;;3.25;3.00;;;;;15.53;73.10;100778.69;5065546;27;45412;-75
2022/12/31 08:11:16;;;;;;;;;3.00;2.00;;;;;15.64;72.96;100805.06;5071107;27;47072;-77
2022/12/31 08:13:42;;;;;;;;;1.25;0.75;;;;;15.55;72.31;100781.34;5067243;28;46151;-74
2022/12/31 08:16:13;;;;;;;;;4.75;2.75;;;;;15.56;72.46;100773.13;5070877;28;46463;-74
2022/12/31 08:18:39;;;;;;;;;3.00;3.00;;;;;15.69;72.88;100801.06;5073467;28;45423;-75
2022/12/31 08:21:30;;;;;;;;;1.25;1.25;;;;;15.65;72.57;100812.19;5072829;27;45432;-75
2022/12/31 08:24:17;;;;;;;;;2.25;2.25;;;;;15.66;72.57;100819.31;5071650;28;46197;-76
2022/12/31 08:27:03;;;;;;;;;3.50;3.50;;;;;15.57;72.56;100812.66;5074374;28;45442;-76
2022/12/31 08:29:40;;;;;;;;;3.00;2.00;;;;;15.65;72.65;100829.25;5090219;27;45397;-75
2022/12/31 08:32:15;;;;;;;;;3.00;3.00;;;;;15.59;72.36;100813.44;5089693;27;45616;-72
2022/12/31 08:35:05;;;;;;;;;2.00;2.00;;;;;15.60;72.67;100796.25;5089465;27;47083;-78
2022/12/31 08:37:42;;;;;;;;;6.00;3.50;;;;;15.66;71.75;100840.94;5074133;27;45400;-76
2022/12/31 08:40:42;;;;;;;;;3.75;3.00;;;;;15.62;72.11;100836.72;5090689;27;45388;-77
2022/12/31 08:43:18;;;;;;;;;4.25;2.00;;;;;15.60;72.42;100841.34;5074474;27;45412;-72
2022/12/31 08:45:50;;;;;;;;;6.00;3.00;;;;;15.57;73.02;100839.69;5075836;28;45358;-75
2022/12/31 08:48:38;;;;;;;;;3.00;2.00;;;;;15.57;72.42;100853.19;5075643;28;45503;-75
2022/12/31 08:51:05;;;;;;;;;5.25;3.00;;;;;15.51;72.22;100848.16;5077139;27;45333;-77
2022/12/31 08:53:30;;;;;;;;;4.00;3.00;;;;;15.52;72.70;100842.66;5077274;27;45387;-78
2022/12/31 08:56:22;;;;;;;;;3.25;3.25;;;;;15.53;72.18;100854.34;5077188;27;45943;-78
2022/12/31 08:59:26;;;;;;;;;2.00;0.75;;;;;15.58;72.20;100848.66;5046284;28;45559;-78
2022/12/31 09:02:18;;;;;;;;;5.00;4.00;;;;;15.57;71.93;100873.97;5065202;28;45573;-78
2022/12/31 09:04:46;;;;;;;;;4.75;1.00;;;;;15.59;71.87;100858.50;5065366;28;45508;-79
2022/12/31 09:07:15;;;;;;;;;1.75;1.75;;;;;15.55;71.85;100860.56;5075661;28;45488;-79
2022/12/31 09:10:00;;;;;;;;;3.00;3.00;;;;;15.61;71.82;100867.41;5065725;28;45396;-77
2022/12/31 09:12:28;;;;;;;;;2.00;2.00;;;;;15.55;71.64;100860.56;5076460;28;45479;-74
2022/12/31 09:15:11;;;;;;;;;4.00;4.00;;;;;15.58;71.39;100856.78;5077317;28;45535;-79
2022/12/31 09:17:48;;;;;;;;;4.00;3.00;;;;;15.59;70.90;100867.50;5075456;28;47361;-76
2022/12/31 09:20:22;;;;;;;;;1.50;1.50;;;;;15.58;71.12;100860.34;5076110;27;45471;-78
2022/12/31 09:22:48;;;;;;;;;7.25;3.25;;;;;15.52;70.97;100872.41;5074983;27;45470;-79
2022/12/31 09:25:16;;;;;;;;;2.25;2.00;;;;;15.49;70.79;100866.31;5073910;28;45476;-76
2022/12/31 09:27:49;;;;;;;;;4.25;3.00;;;;;15.55;70.81;100868.66;5077015;27;46320;-78
2022/12/31 09:30:16;;;;;;;;;5.00;4.00;;;;;15.62;70.70;100869.13;5074855;28;45421;-74
2022/12/31 09:32:53;;;;;;;;;3.75;3.00;;;;;15.66;70.31;100855.31;5076643;27;45392;-77
2022/12/31 09:35:37;;;;;;;;;5.00;4.00;;;;;15.67;70.05;100859.75;5076467;28;45223;-79
2022/12/31 09:38:30;;;;;;;;;3.00;3.00;;;;;15.69;69.82;100868.63;5062743;28;45259;-78
2022/12/31 09:41:12;;;;;;;;;4.50;2.75;;;;;15.68;69.72;100847.97;5075301;28;45927;-77
2022/12/31 09:44:02;;;;;;;;;2.25;2.25;;;;;15.68;69.49;100874.13;5073321;27;45356;-80
2022/12/31 09:46:54;;;;;;;;;4.25;2.00;;;;;15.64;69.30;100854.56;5075580;28;45543;-85
2022/12/31 09:49:19;;;;;;;;;3.25;2.00;;;;;15.81;68.54;100872.38;5076339;28;45437;-80
2022/12/31 09:52:04;;;;;;;;;4.00;2.75;;;;;15.81;68.75;100877.78;5076736;28;45416;-76
2022/12/31 09:54:52;;;;;;;;;3.25;2.00;;;;;15.71;68.53;100880.22;5076198;28;45439;-77
2022/12/31 09:57:30;;;;;;;;;3.00;3.00;;;;;15.74;68.71;100882.69;5075742;28;45471;-76
2022/12/31 10:00:29;;;;;;;;;3.75;2.75;;;;;15.77;68.43;100874.41;5076775;28;45514;-77
2022/12/31 10:03:03;;;;;;;;;5.00;3.00;;;;;15.81;68.63;100857.03;5074620;28;45698;-80
2022/12/31 10:06:02;;;;;;;;;6.00;3.00;;;;;15.84;67.55;100866.75;5075936;27;45387;-77
2022/12/31 10:08:48;;;;;;;;;4.00;3.00;;;;;15.81;67.64;100870.56;5074430;28;46998;-81
2022/12/31 10:11:38;;;;;;;;;4.75;3.00;;;;;15.86;67.56;100867.53;5076637;27;45488;-78
2022/12/31 10:14:09;;;;;;;;;4.25;3.25;;;;;15.83;66.87;100875.81;5076631;28;45423;-77
2022/12/31 10:17:09;;;;;;;;;4.00;3.00;;;;;15.88;67.28;100866.47;5074924;28;45494;-77
2022/12/31 10:19:52;;;;;;;;;1.50;0.00;;;;;15.95;67.03;100860.66;5076057;27;45768;-77
2022/12/31 10:22:59;;;;;;;;;4.50;3.00;;;;;15.77;66.53;100833.00;5075875;28;45400;-79
2022/12/31 10:25:43;;;;;;;;;4.00;4.00;;;;;15.95;66.44;100849.84;5074404;28;45421;-76
2022/12/31 10:28:09;;;;;;;;;5.25;3.00;;;;;15.93;66.09;100849.94;5075828;28;45425;-80
2022/12/31 10:30:46;;;;;;;;;5.00;3.00;;;;;15.98;65.99;100858.63;5074641;28;46622;-79
2022/12/31 10:33:17;;;;;;;;;2.00;2.00;;;;;15.97;65.71;100839.78;5076129;28;45324;-77
2022/12/31 10:35:53;;;;;;;;;2.50;2.00;;;;;16.04;65.81;100866.31;5074601;28;45749;-79
2022/12/31 10:38:24;;;;;;;;;5.00;3.25;;;;;16.09;65.69;100864.16;5062058;28;45508;-78
2022/12/31 10:40:55;;;;;;;;;4.00;3.75;;;;;16.18;65.57;100857.25;5076203;28;45361;-77
2022/12/31 10:43:42;;;;;;;;;5.25;4.25;;;;;16.21;65.00;100844.41;5075098;28;45379;-78
2022/12/31 10:46:32;;;;;;;;;3.00;3.00;;;;;16.20;64.72;100848.09;5071970;28;45371;-78
2022/12/31 10:49:12;;;;;;;;;2.25;2.25;;;;;16.22;64.44;100846.16;5076148;28;45532;-77
2022/12/31 10:52:06;;;;;;;;;2.75;2.00;;;;;16.26;64.65;100826.03;5075708;27;45486;-78
2022/12/31 10:54:34;;;;;;;;;4.00;2.75;;;;;16.23;64.07;100820.84;5060138;27;46171;-79
2022/12/31 10:57:21;;;;;;;;;5.50;4.00;;;;;16.24;63.95;100814.47;5075716;28;45330;-78
2022/12/31 11:00:10;;;;;;;;;5.75;4.00;;;;;16.29;63.67;100822.25;5075299;27;45434;-79
2022/12/31 11:02:38;;;;;;;;;2.00;1.00;;;;;16.38;64.35;100827.03;5078014;27;45573;-77
2022/12/31 11:05:28;;;;;;;;;2.00;2.00;;;;;16.39;63.53;100825.19;5077574;28;45444;-78
2022/12/31 11:08:25;;;;;;;;;3.50;3.50;;;;;16.50;63.39;100828.88;5078212;28;45440;-77
2022/12/31 11:11:25;;;;;;;;;5.00;2.00;;;;;16.56;63.18;100830.31;5075883;27;45275;-76
2022/12/31 11:14:06;;;;;;;;;5.50;3.00;;;;;16.61;62.71;100820.06;5033399;28;45582;-75
2022/12/31 11:16:56;;;;;;;;;2.75;2.75;;;;;16.64;62.44;100823.44;5074729;28;45274;-75
2022/12/31 11:20:16;;;;;;;;;3.00;2.00;;;;;16.70;61.64;100805.88;5073552;28;45374;-74
2022/12/31 11:22:55;;;;;;;;;3.00;3.00;;;;;16.87;62.02;100813.66;5032539;28;45513;-73
2022/12/31 11:25:49;;;;;;;;;6.75;3.50;;;;;16.97;61.02;100797.63;5072326;27;45368;-76
2022/12/31 11:28:37;;;;;;;;;3.00;3.00;;;;;16.97;60.59;100808.47;5071099;28;45404;-77
2022/12/31 11:31:05;;;;;;;;;3.50;2.75;;;;;16.98;60.51;100796.66;5059740;27;45351;-77
2022/12/31 11:33:52;;;;;;;;;3.75;3.00;;;;;16.95;60.99;100799.59;5053287;28;45387;-77
2022/12/31 11:37:09;;;;;;;;;1.75;1.75;;;;;17.06;60.72;100804.25;5034589;28;45940;-78
2022/12/31 11:40:08;;;;;;;;;4.00;2.25;;;;;17.06;60.43;100796.97;5036788;28;46589;-77
2022/12/31 11:42:57;;;;;;;;;3.00;3.00;;;;;17.02;60.60;100819.84;5054103;28;45327;-77
2022/12/31 11:46:12;;;;;;;;;4.00;2.00;;;;;16.96;60.58;100804.91;5054050;28;45331;-77
2022/12/31 11:49:11;;;;;;;;;2.00;2.00;;;;;16.97;60.23;100814.75;5030340;28;45436;-76
2022/12/31 11:51:53;;;;;;;;;5.50;3.00;;;;;17.03;60.57;100803.47;5054027;28;45744;-76
2022/12/31 11:54:24;;;;;;;;;4.00;2.75;;;;;16.94;59.88;100831.22;5054558;28;45232;-80
2022/12/31 11:57:03;;;;;;;;;3.00;3.00;;;;;16.73;59.54;100789.44;5055045;28;45437;-75
2022/12/31 11:59:28;;;;;;;;;2.50;2.50;;;;;16.88;60.10;100799.16;5036403;28;46379;-75
2022/12/31 12:02:00;;;;;;;;;2.50;2.25;;;;;16.73;60.18;100792.13;5036728;28;46882;-75
2022/12/31 12:04:26;;;;;;;;;3.00;3.00;;;;;16.89;60.03;100779.22;5051427;28;45504;-75
2022/12/31 12:06:52;;;;;;;;;2.00;2.00;;;;;16.97;60.02;100792.22;5053769;28;45493;-71
2022/12/31 12:09:27;;;;;;;;;3.00;3.00;;;;;16.95;59.66;100772.50;5058358;28;45580;-75
2022/12/31 12:12:01;;;;;;;;;5.25;3.50;;;;;17.06;59.58;100771.75;5056624;28;45412;-75
2022/12/31 12:14:34;;;;;;;;;0.25;0.00;;;;;17.06;59.43;100779.84;5058354;28;45366;-75
2022/12/31 12:17:02;;;;;;;;;3.50;3.00;;;;;16.92;59.40;100751.94;5059606;28;45346;-77
2022/12/31 12:19:31;;;;;;;;;2.00;2.00;;;;;17.01;58.90;100767.50;5060531;28;45363;-73
2022/12/31 12:21:57;;;;;;;;;3.50;3.00;;;;;16.86;58.89;100757.78;5053981;28;45639;-76
2022/12/31 12:24:29;;;;;;;;;3.25;3.00;;;;;16.85;59.18;100752.47;5056330;28;45496;-73
2022/12/31 12:26:56;;;;;;;;;6.00;4.00;;;;;16.91;58.57;100742.09;5056817;28;45470;-76
2022/12/31 12:29:34;;;;;;;;;2.00;2.00;;;;;17.04;58.79;100766.41;5057821;28;46050;-75
2022/12/31 12:32:15;;;;;;;;;8.00;4.75;;;;;16.99;58.49;100753.22;5055093;28;46586;-75
2022/12/31 12:34:41;;;;;;;;;4.00;2.75;;;;;17.06;58.61;100752.78;5056032;28;45616;-77
2022/12/31 12:37:20;;;;;;;;;3.00;3.00;;;;;17.07;58.36;100746.38;5036105;28;45365;-77
2022/12/31 12:39:59;;;;;;;;;8.00;3.00;;;;;17.08;57.76;100742.69;5056827;28;45403;-76
2022/12/31 12:42:25;;;;;;;;;3.50;3.00;;;;;17.12;57.82;100736.06;5057334;28;46187;-80
2022/12/31 12:45:22;;;;;;;;;2.25;2.25;;;;;16.99;58.22;100704.47;5050093;28;45295;-79
2022/12/31 12:47:53;;;;;;;;;4.00;3.00;;;;;17.08;57.71;100713.78;5046167;28;45502;-81
2022/12/31 12:50:43;;;;;;;;;3.00;3.00;;;;;17.13;58.15;100724.25;5044009;28;45379;-78
2022/12/31 12:53:37;;;;;;;;;3.00;3.00;;;;;17.14;57.82;100716.03;5059942;28;45413;-81
2022/12/31 12:56:05;;;;;;;;;4.25;3.25;;;;;17.09;57.27;100729.06;5059936;28;45898;-80
2022/12/31 12:58:47;;;;;;;;;3.50;3.50;;;;;17.02;58.00;100711.50;5059076;28;45694;-79
2022/12/31 13:01:27;;;;;;;;;4.00;3.00;;;;;16.99;57.31;100693.66;5037394;28;46061;-81
2022/12/31 13:04:21;;;;;;;;;4.00;4.00;;;;;17.05;57.55;100713.97;5055632;28;46212;-79
2022/12/31 13:07:20;;;;;;;;;3.75;3.00;;;;;17.13;57.37;100706.16;5036384;28;45915;-79
2022/12/31 13:09:49;;;;;;;;;1.50;1.50;;;;;17.10;57.61;100711.78;5042664;28;45661;-76
2022/12/31 13:12:30;;;;;;;;;6.00;2.25;;;;;17.06;57.13;100713.00;5038783;28;46862;-76
2022/12/31 13:15:19;;;;;;;;;2.50;2.50;;;;;16.87;57.20;100690.94;5057670;28;46213;-76
2022/12/31 13:17:50;;;;;;;;;5.00;3.00;;;;;16.96;57.62;100715.53;5056705;28;45473;-75
2022/12/31 13:20:22;;;;;;;;;4.50;3.00;;;;;16.89;57.74;100711.53;5056386;28;45385;-74
2022/12/31 13:23:12;;;;;;;;;3.50;2.25;;;;;16.80;57.69;100704.06;5056832;28;45327;-75
2022/12/31 13:25:53;;;;;;;;;3.00;3.00;;;;;16.92;57.47;100700.50;5056303;28;46189;-78
2022/12/31 13:28:19;;;;;;;;;3.25;3.00;;;;;16.78;57.94;100702.44;5039077;28;45434;-79
2022/12/31 13:30:50;;;;;;;;;4.00;3.00;;;;;16.83;57.54;100724.66;5039390;28;45381;-74
2022/12/31 13:33:38;;;;;;;;;3.00;3.00;;;;;16.84;58.07;100738.06;5055976;28;45319;-76
2022/12/31 13:36:12;;;;;;;;;4.25;2.50;;;;;16.81;57.99;100727.47;5050621;28;45532;-75
2022/12/31 13:38:43;;;;;;;;;4.75;3.00;;;;;16.84;57.87;100734.53;5060181;28;45349;-75
2022/12/31 13:41:39;;;;;;;;;3.00;3.00;;;;;16.81;57.78;100734.72;5062757;28;45395;-77
2022/12/31 13:44:07;;;;;;;;;4.75;2.75;;;;;16.77;58.43;100719.66;5056525;28;45256;-77
2022/12/31 13:46:47;;;;;;;;;3.50;3.50;;;;;16.81;57.87;100730.19;5045982;28;45475;-76
2022/12/31 13:49:24;;;;;;;;;6.00;3.00;;;;;16.80;58.22;100725.75;5057936;28;45462;-75
2022/12/31 13:52:00;;;;;;;;;4.00;3.00;;;;;16.74;57.92;100731.59;5030169;28;45501;-76
2022/12/31 13:54:54;;;;;;;;;3.00;2.00;;;;;16.71;57.55;100718.28;5030845;28;46346;-75
2022/12/31 13:57:39;;;;;;;;;3.00;3.00;;;;;16.72;57.53;100733.53;5050729;28;45507;-77
2022/12/31 14:00:17;;;;;;;;;5.00;3.75;;;;;16.60;57.54;100719.00;5045299;28;45503;-76
2022/12/31 14:03:01;;;;;;;;;4.25;2.00;;;;;16.60;57.88;100726.25;5054916;28;45612;-75
2022/12/31 14:06:02;;;;;;;;;2.50;1.50;;;;;16.59;58.03;100717.25;5038198;28;45626;-75
2022/12/31 14:08:27;;;;;;;;;4.00;3.00;;;;;16.52;57.61;100728.63;5059013;28;46265;-77
2022/12/31 14:11:11;;;;;;;;;5.75;3.00;;;;;16.54;58.04;100724.00;5050291;28;45319;-77
2022/12/31 14:13:44;;;;;;;;;4.00;2.50;;;;;16.54;57.75;100716.75;5045134;28;45537;-76
2022/12/31 14:16:22;;;;;;;;;4.00;3.00;;;;;16.54;57.79;100722.16;5053237;28;45269;-77
2022/12/31 14:19:00;;;;;;;;;4.00;2.75;;;;;16.57;57.51;100729.19;5054832;28;46051;-78
2022/12/31 14:21:38;;;;;;;;;3.75;3.75;;;;;16.54;57.58;100714.03;5026734;28;45533;-78
2022/12/31 14:24:13;;;;;;;;;3.50;1.25;;;;;16.51;57.37;100729.59;5029764;28;45747;-86
2022/12/31 14:26:51;;;;;;;;;3.25;3.25;;;;;16.47;57.43;100714.56;5048884;28;45777;-77
2022/12/31 14:29:24;;;;;;;;;6.00;3.00;;;;;16.26;57.67;100670.94;5037986;28;48378;-77
2022/12/31 14:31:52;;;;;;;;;3.00;3.00;;;;;16.49;57.77;100707.22;5035507;28;45922;-79
2022/12/31 14:34:41;;;;;;;;;1.50;1.50;;;;;16.48;56.89;100719.03;5023940;28;45472;-78
2022/12/31 14:37:12;;;;;;;;;3.75;3.75;;;;;16.40;56.89;100702.47;5030461;28;45698;-77
2022/12/31 14:39:51;;;;;;;;;4.25;4.00;;;;;16.36;57.11;100696.38;5036167;28;47687;-75
2022/12/31 14:43:02;;;;;;;;;4.25;3.50;;;;;16.45;56.79;100716.53;5038676;28;45465;-75
2022/12/31 14:45:46;;;;;;;;;4.75;3.25;;;;;16.43;57.08;100713.03;5042803;28;45483;-75
2022/12/31 14:48:20;;;;;;;;;1.00;1.00;;;;;16.44;56.73;100710.25;5048899;28;45831;-75
2022/12/31 14:50:46;;;;;;;;;4.00;3.50;;;;;16.43;56.86;100699.53;5050051;28;45494;-75
2022/12/31 14:53:30;;;;;;;;;4.00;4.00;;;;;16.46;56.81;100708.28;5045791;28;45745;-76
2022/12/31 14:56:03;;;;;;;;;4.00;4.00;;;;;16.38;56.60;100690.88;5042653;28;45495;-74
2022/12/31 14:58:30;;;;;;;;;3.25;2.75;;;;;16.47;56.76;100709.16;5031698;28;45521;-75
2022/12/31 15:01:03;;;;;;;;;10.00;4.00;;;;;16.43;56.83;100699.53;5055197;28;45426;-76
2022/12/31 15:03:35;;;;;;;;;4.00;3.00;;;;;16.42;56.36;100720.31;5056821;28;45443;-73
2022/12/31 15:06:17;;;;;;;;;4.00;4.00;;;;;16.30;56.18;100706.78;5056600;28;45435;-75
2022/12/31 15:09:03;;;;;;;;;4.00;4.00;;;;;16.28;56.16;100725.81;5043944;28;45598;-75
2022/12/31 15:11:59;;;;;;;;;2.00;2.00;;;;;16.24;56.36;100724.31;5054901;28;46164;-74
2022/12/31 15:14:58;;;;;;;;;4.50;3.75;;;;;16.19;56.20;100737.28;5023320;28;45446;-75
2022/12/31 15:17:45;;;;;;;;;3.00;3.00;;;;;16.13;56.30;100724.19;5042181;28;45496;-75
2022/12/31 15:20:26;;;;;;;;;4.50;3.00;;;;;16.14;56.03;100729.50;5036342;28;45639;-75
2022/12/31 15:22:53;;;;;;;;;3.00;3.00;;;;;16.00;55.93;100702.53;5045068;28;45415;-77
2022/12/31 15:25:30;;;;;;;;;2.75;2.25;;;;;16.16;55.94;100738.34;5046668;28;45438;-77
2022/12/31 15:27:59;;;;;;;;;2.25;2.25;;;;;16.12;56.20;100742.25;5032786;28;45387;-76
2022/12/31 15:30:34;;;;;;;;;3.00;3.00;;;;;16.11;55.95;100742.34;5036747;28;45529;-76
2022/12/31 15:33:05;;;;;;;;;2.00;2.00;;;;;16.05;55.52;100731.97;5053986;28;46598;-76
2022/12/31 15:35:44;;;;;;;;;4.00;4.00;;;;;16.04;55.79;100736.50;5053854;28;45349;-80
2022/12/31 15:38:09;;;;;;;;;5.00;3.50;;;;;16.05;55.72;100738.25;5028335;28;45400;-80
2022/12/31 15:40:44;;;;;;;;;3.00;3.00;;;;;16.07;55.43;100747.13;5041891;28;46979;-76
2022/12/31 15:43:32;;;;;;;;;3.00;3.00;;;;;16.09;55.50;100741.59;5039895;28;47495;-78
2022/12/31 15:45:58;;;;;;;;;2.50;2.50;;;;;16.09;55.47;100747.00;5037469;28;45659;-78
2022/12/31 15:48:51;;;;;;;;;3.75;2.25;;;;;16.06;55.53;100737.28;5040447;28;45410;-79
2022/12/31 15:51:21;;;;;;;;;2.25;2.25;;;;;16.06;54.91;100731.00;5022692;28;46019;-77
2022/12/31 15:53:52;;;;;;;;;4.00;2.50;;;;;16.03;55.23;100734.78;5042967;28;45408;-78
2022/12/31 15:56:36;;;;;;;;;6.25;3.75;;;;;15.98;55.12;100734.22;5041748;28;45330;-78
2022/12/31 15:59:06;;;;;;;;;2.25;1.25;;;;;16.01;54.88;100736.72;5046272;28;46067;-78
2022/12/31 16:01:35;;;;;;;;;2.50;2.50;;;;;15.97;54.71;100735.19;5052191;28;45486;-77
2022/12/31 16:04:06;;;;;;;;;2.50;2.00;;;;;15.98;54.59;100745.03;5051275;28;46562;-77
2022/12/31 16:06:36;;;;;;;;;3.50;2.75;;;;;16.03;54.47;100747.41;5051406;28;45506;-81
2022/12/31 16:09:05;;;;;;;;;5.50;2.00;;;;;15.98;53.91;100752.28;5043173;28;45438;-76
2022/12/31 16:11:35;;;;;;;;;5.00;2.50;;;;;16.01;53.93;100760.19;5043800;28;46115;-78
2022/12/31 16:14:03;;;;;;;;;2.75;2.75;;;;;15.96;53.71;100741.56;5046637;28;45496;-78
2022/12/31 16:16:30;;;;;;;;;2.00;2.00;;;;;15.98;53.31;100723.41;5038282;28;45897;-79
2022/12/31 16:18:57;;;;;;;;;5.75;2.50;;;;;15.97;53.04;100734.34;5051889;28;45330;-81
2022/12/31 16:21:34;;;;;;;;;4.00;4.00;;;;;15.94;53.28;100761.56;5049156;28;45629;-76
2022/12/31 16:24:05;;;;;;;;;4.50;3.25;;;;;15.94;52.87;100734.53;5057398;28;45463;-77
2022/12/31 16:26:37;;;;;;;;;4.50;3.00;;;;;15.98;52.75;100745.03;5039416;28;45872;-76
2022/12/31 16:29:03;;;;;;;;;4.00;3.00;;;;;16.03;52.58;100752.84;5057571;28;45416;-77
2022/12/31 16:31:30;;;;;;;;;1.50;1.50;;;;;15.80;52.77;100701.22;5056663;28;45431;-77
2022/12/31 16:34:04;;;;;;;;;6.00;2.00;;;;;15.90;52.20;100731.19;5056843;28;45512;-77
2022/12/31 16:36:29;;;;;;;;;2.00;2.00;;;;;15.86;52.42;100713.44;5055980;28;45448;-77
2022/12/31 16:39:25;;;;;;;;;2.00;2.00;;;;;16.06;52.72;100753.50;5056988;28;45525;-77
2022/12/31 16:42:05;;;;;;;;;6.00;2.00;;;;;16.02;52.26;100749.25;5025474;28;46136;-77
2022/12/31 16:44:30;;;;;;;;;2.75;2.75;;;;;15.97;52.01;100756.84;5038786;28;46455;-81
2022/12/31 16:46:58;;;;;;;;;4.25;3.50;;;;;16.00;52.29;100762.00;5053991;28;45462;-75
2022/12/31 16:49:26;;;;;;;;;4.25;2.50;;;;;15.96;51.88;100748.81;5054331;28;45824;-76
2022/12/31 16:51:56;;;;;;;;;4.25;2.50;;;;;16.03;51.60;100753.69;5048495;28;45479;-78
2022/12/31 16:54:37;;;;;;;;;4.25;2.75;;;;;15.97;51.41;100766.78;5056033;28;45367;-78
2022/12/31 16:57:05;;;;;;;;;3.25;1.25;;;;;16.06;51.72;100767.03;5041606;28;45299;-77
2022/12/31 16:59:38;;;;;;;;;4.75;4.75;;;;;16.09;51.79;100774.03;5055192;28;45437;-79
2022/12/31 17:02:18;;;;;;;;;2.50;2.50;;;;;16.09;51.67;100772.19;5056630;28;45678;-77
2022/12/31 17:04:52;;;;;;;;;3.25;3.00;;;;;16.04;50.92;100782.47;5057412;28;46404;-82
2022/12/31 17:07:29;;;;;;;;;4.25;3.00;;;;;16.01;51.01;100785.38;5057454;28;45493;-79
2022/12/31 17:10:06;;;;;;;;;3.25;2.75;;;;;16.06;51.57;100768.84;5057276;28;45529;-79